»·PEaware :: N3533G KWVI-KMRY

N3533G :: KWVI-KMRY

FLIGHT INFORMATION

Flight Status: Arrived
Operator: Privately registered:
United States
More flights under this callsign
Pilot: Marco B. (23309)
Aircraft: CESSNA 172 SKYHAWK
(C172)
More flights by this aircraft type
Origin: KWVI Watsonville Mun
United States
Destination: KMRY Monterey Peninsula
United States
More flights between these airports :: More routes between these airports
Route: SNS
File this flight plan on PilotEdge
Remarks: Practice approaches
Altitude:
(Current/Filed)
5,000ft
Speed:
(Current/Filed)
100kts
Departed: 01-Jan-20 01:27 PM
Arrived: 01-Jan-20 03:02 PM
Distance/Time
Traveled:
21nm/1:35
Distance/Time
To Go:
Arrived

Flight Plot

Page will automatically refresh every two minutes.

Flight plan parsing failed; only flown route is shown


Map Options




Map Legend


Flown Route
Filed Route
Departure Airport
Arrival Airport
Navaid (VOR, NDB)
Fix

Horizontal Profiles

Position Reports

Time Latitude Longitude Heading Altitude Ground
Speed
01-Jan-20 12:26 36.935537 -121.788879 205 147ft 0kts
01-Jan-20 12:27 36.935537 -121.788879 205 147ft 0kts
01-Jan-20 12:28 36.935537 -121.788879 205 147ft 0kts
01-Jan-20 12:29 36.935537 -121.788879 205 147ft 0kts
01-Jan-20 12:30 36.935537 -121.788879 205 147ft 0kts
01-Jan-20 12:31 36.935537 -121.788879 205 147ft 0kts
01-Jan-20 12:32 36.935537 -121.788879 205 147ft 0kts
01-Jan-20 12:33 36.935537 -121.788879 205 147ft 0kts
01-Jan-20 12:34 36.935537 -121.788879 205 147ft 0kts
01-Jan-20 12:35 36.935537 -121.788879 205 147ft 0kts
01-Jan-20 12:36 36.935537 -121.788879 205 147ft 0kts
01-Jan-20 12:37 36.935537 -121.788879 205 147ft 0kts
01-Jan-20 12:38 36.935537 -121.788879 205 147ft 0kts
01-Jan-20 12:39 36.935537 -121.788879 205 147ft 0kts
01-Jan-20 12:40 36.935537 -121.788879 205 147ft 0kts
01-Jan-20 12:41 36.935533 -121.788881 205 147ft 0kts
01-Jan-20 12:42 36.935925 -121.789196 33 148ft 12kts
01-Jan-20 12:43 36.938580 -121.787146 8 149ft 13kts
01-Jan-20 12:44 36.938833 -121.787112 4 149ft 0kts
01-Jan-20 12:45 36.938833 -121.787112 4 149ft 0kts
01-Jan-20 12:46 36.938833 -121.787112 4 149ft 0kts
01-Jan-20 12:47 36.938833 -121.787112 4 149ft 0kts
01-Jan-20 12:48 36.938833 -121.787112 4 149ft 0kts
01-Jan-20 12:49 36.938833 -121.787112 4 149ft 0kts
01-Jan-20 12:50 36.938833 -121.787112 4 149ft 0kts
01-Jan-20 12:51 36.938833 -121.787112 4 149ft 0kts
01-Jan-20 12:52 36.938833 -121.787112 4 149ft 0kts
01-Jan-20 12:53 36.938833 -121.787112 4 149ft 0kts
01-Jan-20 12:54 36.938833 -121.787112 4 149ft 0kts
01-Jan-20 12:55 36.938833 -121.787112 4 149ft 0kts
01-Jan-20 12:56 36.938833 -121.787112 4 149ft 0kts
01-Jan-20 12:57 36.938833 -121.787112 4 149ft 0kts
01-Jan-20 12:58 36.938833 -121.787112 4 149ft 0kts
01-Jan-20 12:59 36.938833 -121.787112 4 149ft 0kts
01-Jan-20 13:00 36.938833 -121.787112 4 149ft 0kts
01-Jan-20 13:01 36.938833 -121.787112 4 149ft 0kts
01-Jan-20 13:02 36.938833 -121.787112 4 149ft 0kts
01-Jan-20 13:03 36.938833 -121.787112 4 149ft 0kts
01-Jan-20 13:04 36.938833 -121.787112 4 149ft 0kts
01-Jan-20 13:05 36.938833 -121.787112 4 149ft 0kts
01-Jan-20 13:06 36.938833 -121.787112 4 149ft 0kts
01-Jan-20 13:07 36.938833 -121.787112 4 149ft 0kts
01-Jan-20 13:08 36.938833 -121.787112 4 149ft 0kts
01-Jan-20 13:09 36.938833 -121.787112 4 149ft 0kts
01-Jan-20 13:10 36.938833 -121.787112 4 149ft 0kts
01-Jan-20 13:11 36.938833 -121.787112 4 149ft 0kts
01-Jan-20 13:12 36.938833 -121.787112 4 149ft 0kts
01-Jan-20 13:13 36.938833 -121.787112 4 149ft 0kts
01-Jan-20 13:14 36.938833 -121.787112 4 149ft 0kts
01-Jan-20 13:15 36.938833 -121.787112 4 149ft 0kts
01-Jan-20 13:16 36.938833 -121.787112 4 149ft 0kts
01-Jan-20 13:17 36.938833 -121.787112 4 149ft 0kts
01-Jan-20 13:18 36.938833 -121.787112 4 149ft 0kts
01-Jan-20 13:19 36.938833 -121.787112 4 149ft 0kts
01-Jan-20 13:20 36.938833 -121.787112 4 149ft 0kts
01-Jan-20 13:21 36.938833 -121.787112 4 149ft 0kts
01-Jan-20 13:22 36.938837 -121.787111 3 149ft 0kts
01-Jan-20 13:23 36.938837 -121.787111 3 149ft 0kts
01-Jan-20 13:24 36.938837 -121.787111 3 149ft 0kts
01-Jan-20 13:25 36.938837 -121.787111 3 149ft 0kts
01-Jan-20 13:26 36.934225 -121.791750 213 215ft 72kts
01-Jan-20 13:27 36.918356 -121.808459 231 982ft 76kts
01-Jan-20 13:28 36.900007 -121.800501 143 1692ft 81kts
01-Jan-20 13:29 36.880321 -121.787201 155 2369ft 82kts
01-Jan-20 13:30 36.859170 -121.774925 151 2992ft 87kts
01-Jan-20 13:31 36.836045 -121.765304 161 3605ft 88kts
01-Jan-20 13:33 36.812396 -121.755349 158 4187ft 90kts
01-Jan-20 13:34 36.789301 -121.741698 156 4742ft 93kts
01-Jan-20 13:35 36.761713 -121.731659 170 5018ft 122kts
01-Jan-20 13:36 36.732846 -121.715560 122 5011ft 119kts
01-Jan-20 13:37 36.712591 -121.682497 122 4998ft 120kts
01-Jan-20 13:38 36.692964 -121.649117 119 5041ft 116kts
01-Jan-20 13:39 36.671482 -121.617930 132 4867ft 117kts
01-Jan-20 13:40 36.651500 -121.623247 286 4243ft 93kts
01-Jan-20 13:41 36.659038 -121.653427 285 3631ft 87kts
01-Jan-20 13:42 36.658176 -121.683874 278 3575ft 91kts
01-Jan-20 13:43 36.658065 -121.715574 272 3693ft 95kts
01-Jan-20 13:44 36.656979 -121.749656 273 3688ft 99kts
01-Jan-20 13:45 36.655769 -121.784188 272 3690ft 100kts
01-Jan-20 13:46 36.654219 -121.819183 272 3692ft 101kts
01-Jan-20 13:47 36.652930 -121.854560 271 3695ft 102kts
01-Jan-20 13:48 36.651185 -121.890236 273 3699ft 103kts
01-Jan-20 13:49 36.649719 -121.926051 272 3704ft 103kts
01-Jan-20 13:50 36.647672 -121.961967 268 3715ft 104kts
01-Jan-20 13:51 36.646473 -121.997910 270 3723ft 104kts
01-Jan-20 13:52 36.640930 -122.032389 250 3431ft 101kts
01-Jan-20 13:53 36.634190 -122.064638 300 2834ft 93kts
01-Jan-20 13:53 36.649438 -122.060019 81 2547ft 85kts
01-Jan-20 13:55 36.647529 -122.025681 77 2716ft 88kts
01-Jan-20 13:55 36.640944 -122.001692 120 2548ft 94kts
01-Jan-20 13:56 36.630451 -121.972858 112 2107ft 90kts
01-Jan-20 13:58 36.619289 -121.939474 110 1671ft 91kts
01-Jan-20 13:58 36.610861 -121.915553 110 1242ft 91kts
01-Jan-20 13:59 36.601297 -121.886893 115 697ft 90kts
01-Jan-20 14:00 36.596624 -121.859421 30 1079ft 85kts
01-Jan-20 14:01 36.614843 -121.839985 34 1811ft 89kts
01-Jan-20 14:02 36.619646 -121.852679 270 2481ft 75kts
01-Jan-20 14:03 36.634186 -121.845547 59 3125ft 96kts
01-Jan-20 14:04 36.643098 -121.814415 88 3767ft 98kts
01-Jan-20 14:05 36.639706 -121.780238 91 4358ft 101kts
01-Jan-20 14:06 36.643267 -121.746344 72 4923ft 100kts
01-Jan-20 14:07 36.650128 -121.709845 73 5095ft 115kts
01-Jan-20 14:08 36.656456 -121.669018 73 5048ft 120kts
01-Jan-20 14:09 36.662874 -121.628131 73 4964ft 119kts
01-Jan-20 14:10 36.669160 -121.588500 53 4996ft 109kts
01-Jan-20 14:11 36.684397 -121.596318 277 4980ft 84kts
01-Jan-20 14:12 36.688106 -121.625268 282 5005ft 87kts
01-Jan-20 14:13 36.677645 -121.644375 158 5094ft 115kts
01-Jan-20 14:14 36.664083 -121.607060 104 5090ft 121kts
01-Jan-20 14:15 36.678532 -121.590121 301 5104ft 87kts
01-Jan-20 14:16 36.684195 -121.619841 282 5092ft 87kts
01-Jan-20 14:17 36.677703 -121.644511 183 5101ft 109kts
01-Jan-20 14:18 36.664972 -121.610169 92 5099ft 119kts
01-Jan-20 14:19 36.676399 -121.582321 333 5103ft 92kts
01-Jan-20 14:20 36.683769 -121.610322 286 5065ft 89kts
01-Jan-20 14:21 36.689172 -121.640250 281 5075ft 87kts
01-Jan-20 14:22 36.684432 -121.666813 197 5108ft 105kts
01-Jan-20 14:23 36.668927 -121.636482 99 5109ft 119kts
01-Jan-20 14:24 36.663482 -121.595902 83 5163ft 116kts
01-Jan-20 14:25 36.681498 -121.589780 279 5088ft 88kts
01-Jan-20 14:26 36.686428 -121.619253 284 5136ft 86kts
01-Jan-20 14:27 36.691407 -121.648680 280 5149ft 88kts
01-Jan-20 14:28 36.673581 -121.661688 148 5142ft 120kts
01-Jan-20 14:29 36.666455 -121.622095 101 5115ft 121kts
01-Jan-20 14:30 36.667069 -121.581829 38 5062ft 114kts
01-Jan-20 14:31 36.684136 -121.593493 283 5039ft 85kts
01-Jan-20 14:32 36.687553 -121.623284 272 5028ft 87kts
01-Jan-20 14:33 36.692343 -121.652888 287 5022ft 87kts
01-Jan-20 14:34 36.680111 -121.670313 152 4982ft 116kts
01-Jan-20 14:35 36.668789 -121.633038 103 5013ft 118kts
01-Jan-20 14:36 36.657044 -121.595262 148 5117ft 115kts
01-Jan-20 14:37 36.631902 -121.576826 166 5746ft 101kts
01-Jan-20 14:38 36.604465 -121.566237 167 6094ft 119kts
01-Jan-20 14:39 36.573148 -121.551681 166 6107ft 119kts
01-Jan-20 14:40 36.542275 -121.536052 162 6123ft 120kts
01-Jan-20 14:41 36.511601 -121.519410 162 6117ft 120kts
01-Jan-20 14:42 36.480929 -121.502335 165 6112ft 120kts
01-Jan-20 14:43 36.459090 -121.473611 110 6119ft 123kts
01-Jan-20 14:44 36.455045 -121.435226 32 6135ft 109kts
01-Jan-20 14:45 36.470531 -121.451291 288 6125ft 85kts
01-Jan-20 14:46 36.470272 -121.481462 273 6165ft 88kts
01-Jan-20 14:47 36.470933 -121.512050 295 6133ft 89kts
01-Jan-20 14:48 36.483007 -121.538984 298 5737ft 90kts
01-Jan-20 14:49 36.493516 -121.566994 290 5005ft 89kts
01-Jan-20 14:50 36.502316 -121.594195 297 4549ft 75kts
01-Jan-20 14:51 36.510262 -121.618125 292 4375ft 71kts
01-Jan-20 14:52 36.518541 -121.642299 294 3926ft 76kts
01-Jan-20 14:53 36.526897 -121.667090 289 3426ft 78kts
01-Jan-20 14:54 36.535603 -121.692076 294 2997ft 76kts
01-Jan-20 14:55 36.544011 -121.716972 291 2197ft 79kts
01-Jan-20 14:56 36.552395 -121.742702 291 1481ft 77kts
01-Jan-20 14:57 36.560749 -121.767431 293 1503ft 81kts
01-Jan-20 14:58 36.569776 -121.793297 290 1263ft 81kts
01-Jan-20 14:59 36.578635 -121.819208 290 766ft 75kts
01-Jan-20 15:00 36.585955 -121.840979 278 227ft 49kts
01-Jan-20 15:01 36.587467 -121.847559 204 186ft 0kts
01-Jan-20 15:02 36.587435 -121.847575 197 186ft 3kts
01-Jan-20 15:03 36.585706 -121.845477 113 206ft 0kts
01-Jan-20 15:04 36.585706 -121.845477 113 206ft 0kts

Navigation Log

Ident Type
Flight plan parsing failed, navigation log unavailable